createdAt,value
2018-10-03T00:01:57.568Z,99.90
2018-10-03T00:04:26.109Z,99.90
2018-10-03T00:06:54.617Z,99.90
2018-10-03T00:09:23.166Z,99.90
2018-10-03T00:11:51.674Z,99.90
2018-10-03T00:14:20.190Z,99.90
2018-10-03T00:16:49.286Z,99.90
2018-10-03T00:19:17.755Z,99.90
2018-10-03T00:21:46.293Z,99.90
2018-10-03T00:24:14.976Z,99.90
2018-10-03T00:26:43.543Z,99.90
2018-10-03T00:29:12.066Z,99.90
2018-10-03T00:31:40.645Z,99.90
2018-10-03T00:34:09.099Z,99.90
2018-10-03T00:36:37.613Z,99.90
2018-10-03T00:39:08.697Z,99.90
2018-10-03T00:41:37.355Z,99.90
2018-10-03T00:44:05.993Z,99.90
2018-10-03T00:46:34.514Z,99.90
2018-10-03T00:49:03.674Z,99.90
2018-10-03T00:51:32.336Z,99.90
2018-10-03T00:54:01.363Z,99.90
2018-10-03T00:56:30.447Z,99.90
2018-10-03T00:58:59.249Z,99.90
2018-10-03T01:01:28.263Z,99.90
2018-10-03T01:03:56.856Z,99.90
2018-10-03T01:06:25.380Z,99.90
2018-10-03T01:08:53.897Z,99.90
2018-10-03T01:11:22.553Z,99.90
2018-10-03T01:13:51.122Z,99.90
2018-10-03T01:16:19.748Z,99.90
2018-10-03T01:18:48.253Z,99.90
2018-10-03T01:21:16.777Z,99.90
2018-10-03T01:23:45.286Z,99.90
2018-10-03T01:26:13.826Z,99.90
2018-10-03T01:28:42.393Z,99.90
2018-10-03T01:31:10.984Z,99.90
2018-10-03T01:33:39.416Z,99.90
2018-10-03T01:36:08.017Z,99.90
2018-10-03T01:38:36.473Z,99.90
2018-10-03T01:41:05.008Z,99.90
2018-10-03T01:43:33.759Z,99.90
2018-10-03T01:46:02.429Z,99.90
2018-10-03T01:48:31.053Z,99.90
2018-10-03T01:50:59.886Z,99.90
2018-10-03T01:53:28.686Z,99.90
2018-10-03T01:55:57.322Z,99.90
2018-10-03T01:58:26.004Z,99.90
2018-10-03T02:00:54.538Z,99.90
2018-10-03T02:03:23.017Z,99.90
2018-10-03T02:05:51.524Z,99.90
2018-10-03T02:08:20.004Z,99.90
2018-10-03T02:10:48.409Z,99.90
2018-10-03T02:13:16.955Z,99.90
2018-10-03T02:15:45.429Z,99.90
2018-10-03T02:18:14.017Z,99.90
2018-10-03T02:20:42.563Z,99.90
2018-10-03T02:23:11.077Z,99.90
2018-10-03T02:25:39.557Z,99.90
2018-10-03T02:28:08.013Z,99.90
2018-10-03T02:30:36.590Z,99.90
2018-10-03T02:33:05.129Z,99.90
2018-10-03T02:35:33.732Z,99.90
2018-10-03T02:38:02.234Z,99.90
2018-10-03T02:40:30.821Z,99.90
2018-10-03T02:42:59.359Z,99.90
2018-10-03T02:45:28.534Z,99.90
2018-10-03T02:47:57.091Z,99.90
2018-10-03T02:50:25.544Z,99.90
2018-10-03T02:52:54.069Z,99.90
2018-10-03T02:55:22.534Z,99.90
2018-10-03T02:57:51.091Z,99.90
2018-10-03T03:00:19.641Z,99.90
2018-10-03T03:02:48.191Z,99.90
2018-10-03T03:05:16.736Z,99.90
2018-10-03T03:07:45.349Z,99.90
2018-10-03T03:10:14.334Z,99.90
2018-10-03T03:12:42.926Z,99.90
2018-10-03T03:15:11.475Z,99.90
2018-10-03T03:17:40.057Z,99.90
2018-10-03T03:20:08.694Z,99.90
2018-10-03T03:22:37.195Z,99.90
2018-10-03T03:25:05.858Z,99.90
2018-10-03T03:27:34.349Z,99.90
2018-10-03T03:30:03.016Z,99.90
2018-10-03T03:32:31.560Z,99.90
2018-10-03T03:35:00.085Z,99.90
2018-10-03T03:37:28.709Z,99.90
2018-10-03T03:39:57.250Z,99.90
2018-10-03T03:42:25.795Z,99.90
2018-10-03T03:44:54.274Z,99.90
2018-10-03T03:47:22.823Z,99.90
2018-10-03T03:49:51.401Z,99.90
2018-10-03T03:52:19.901Z,99.90
2018-10-03T03:54:48.382Z,99.90
2018-10-03T03:57:16.899Z,99.90
2018-10-03T03:59:45.316Z,99.90
2018-10-03T04:02:13.788Z,99.90
2018-10-03T04:04:42.232Z,99.90
2018-10-03T04:07:10.743Z,99.90
2018-10-03T04:09:39.291Z,99.90
2018-10-03T04:12:07.776Z,99.90
2018-10-03T04:14:36.362Z,99.90
2018-10-03T04:17:04.825Z,99.90
2018-10-03T04:19:33.362Z,99.90
2018-10-03T04:22:01.905Z,99.90
2018-10-03T04:24:30.524Z,99.90
2018-10-03T04:26:59.205Z,99.90
2018-10-03T04:29:27.893Z,99.90
2018-10-03T04:31:56.421Z,99.90
2018-10-03T04:34:24.983Z,99.90
2018-10-03T04:36:53.468Z,99.90
2018-10-03T04:39:22.057Z,99.90
2018-10-03T04:41:50.564Z,99.90
2018-10-03T04:44:19.251Z,99.90
2018-10-03T04:46:47.665Z,99.90
2018-10-03T04:49:16.189Z,99.90
2018-10-03T04:51:44.692Z,99.90
2018-10-03T04:54:13.280Z,99.90
2018-10-03T04:56:41.816Z,99.90
2018-10-03T04:59:10.328Z,99.90
2018-10-03T05:01:38.820Z,99.90
2018-10-03T05:04:07.352Z,99.90
2018-10-03T05:06:35.866Z,99.90
2018-10-03T05:09:05.721Z,99.90
2018-10-03T05:11:34.217Z,99.90
2018-10-03T05:14:02.798Z,99.90
2018-10-03T05:16:31.324Z,99.90
2018-10-03T05:18:59.922Z,99.90
2018-10-03T05:21:28.511Z,99.90
2018-10-03T05:23:57.137Z,99.90
2018-10-03T05:26:25.594Z,99.90
2018-10-03T05:28:54.095Z,99.90
2018-10-03T05:31:22.600Z,99.90
2018-10-03T05:33:51.138Z,99.90
2018-10-03T05:36:19.607Z,99.90
2018-10-03T05:38:48.084Z,99.90
2018-10-03T05:41:16.601Z,99.90
2018-10-03T05:43:45.194Z,99.90
2018-10-03T05:46:13.701Z,99.90
2018-10-03T05:48:42.327Z,99.90
2018-10-03T05:51:10.804Z,99.90
2018-10-03T05:53:39.234Z,99.90
2018-10-03T05:56:07.771Z,99.90
2018-10-03T05:58:36.238Z,99.90
2018-10-03T06:01:04.740Z,99.90
2018-10-03T06:03:33.253Z,99.90
2018-10-03T06:06:01.768Z,99.90
2018-10-03T06:08:30.294Z,99.90
2018-10-03T06:10:58.846Z,99.90
2018-10-03T06:13:27.489Z,99.90
2018-10-03T06:15:56.949Z,99.90
2018-10-03T06:18:25.464Z,99.90
2018-10-03T06:20:53.972Z,99.90
2018-10-03T06:23:22.462Z,99.90
2018-10-03T06:25:51.105Z,99.90
2018-10-03T06:28:19.703Z,99.90
2018-10-03T06:30:48.289Z,99.90
2018-10-03T06:33:16.893Z,99.90
2018-10-03T06:35:45.459Z,99.90
2018-10-03T06:38:13.940Z,99.90
2018-10-03T06:40:42.429Z,99.90
2018-10-03T06:43:10.965Z,99.90
2018-10-03T06:45:39.506Z,99.90
2018-10-03T06:48:07.926Z,99.90
2018-10-03T06:50:36.434Z,99.90
2018-10-03T06:53:04.918Z,99.90
2018-10-03T06:55:33.492Z,99.90
2018-10-03T06:58:02.125Z,99.90
2018-10-03T07:00:30.645Z,99.90
2018-10-03T07:02:59.344Z,99.90
2018-10-03T07:05:27.924Z,99.90
2018-10-03T07:07:56.440Z,99.90
2018-10-03T07:10:25.005Z,99.90
2018-10-03T07:12:53.455Z,99.90
2018-10-03T07:15:21.989Z,99.90
2018-10-03T07:17:50.437Z,99.90
2018-10-03T07:20:18.999Z,99.90
2018-10-03T07:22:47.489Z,99.90
2018-10-03T07:25:15.977Z,99.90
2018-10-03T07:27:44.426Z,99.90
2018-10-03T07:30:12.929Z,99.90
2018-10-03T07:32:41.523Z,99.90
2018-10-03T07:35:10.409Z,99.90
2018-10-03T07:37:38.872Z,99.90
2018-10-03T07:40:07.660Z,99.90
2018-10-03T07:42:36.088Z,99.90
2018-10-03T07:45:04.779Z,99.90
2018-10-03T07:47:33.684Z,99.50
2018-10-03T07:50:02.768Z,99.20
2018-10-03T07:52:31.352Z,98.60
2018-10-03T07:54:59.937Z,98.00
2018-10-03T07:57:28.486Z,98.40
2018-10-03T07:59:58.403Z,97.70
2018-10-03T08:02:27.179Z,96.70
2018-10-03T08:04:55.728Z,96.70
2018-10-03T08:07:24.232Z,96.20
2018-10-03T08:09:52.893Z,92.50
2018-10-03T08:12:21.329Z,91.00
2018-10-03T08:14:50.191Z,91.80
2018-10-03T08:17:18.674Z,92.30
2018-10-03T08:19:47.289Z,92.80
2018-10-03T08:22:15.718Z,92.50
2018-10-03T08:24:44.501Z,91.20
2018-10-03T08:27:13.007Z,91.00
2018-10-03T08:29:41.521Z,90.40
2018-10-03T08:32:10.263Z,90.30
2018-10-03T08:34:38.885Z,87.10
2018-10-03T08:37:18.040Z,85.60
2018-10-03T08:39:46.649Z,84.70
2018-10-03T08:42:15.293Z,84.00
2018-10-03T08:45:02.019Z,81.30
2018-10-03T08:47:30.643Z,83.00
2018-10-03T08:51:20.392Z,83.20
2018-10-03T08:53:48.869Z,80.90
2018-10-03T08:57:21.578Z,79.40
2018-10-03T08:59:50.388Z,77.20
2018-10-03T09:02:18.903Z,78.20
2018-10-03T09:04:47.332Z,79.20
2018-10-03T09:07:15.958Z,79.60
2018-10-03T09:09:44.453Z,80.10
2018-10-03T09:12:13.106Z,80.50
2018-10-03T09:14:41.531Z,81.20
2018-10-03T09:17:10.074Z,82.80
2018-10-03T09:19:38.539Z,82.60
2018-10-03T09:22:07.143Z,83.20
2018-10-03T09:24:35.529Z,80.80
2018-10-03T09:27:04.109Z,80.80
2018-10-03T09:29:32.614Z,79.00
2018-10-03T09:32:01.241Z,78.70
2018-10-03T09:34:29.769Z,79.40
2018-10-03T09:36:58.446Z,78.90
2018-10-03T09:39:27.279Z,78.10
2018-10-03T09:41:55.817Z,78.10
2018-10-03T09:44:24.426Z,76.70
2018-10-03T09:46:52.829Z,75.80
2018-10-03T09:49:21.307Z,75.10
2018-10-03T09:51:49.911Z,74.40
2018-10-03T09:54:18.340Z,73.10
2018-10-03T09:56:46.768Z,74.30
2018-10-03T09:59:15.322Z,75.40
2018-10-03T10:01:43.910Z,72.30
2018-10-03T10:04:12.359Z,70.80
2018-10-03T10:06:40.928Z,71.30
2018-10-03T10:09:10.524Z,71.10
2018-10-03T10:11:39.244Z,67.60
2018-10-03T10:14:07.590Z,67.00
2018-10-03T10:16:36.118Z,67.50
2018-10-03T10:19:04.660Z,69.30
2018-10-03T10:21:33.375Z,70.40
2018-10-03T10:24:01.955Z,69.70
2018-10-03T10:26:30.534Z,68.60
2018-10-03T10:28:59.110Z,68.70
2018-10-03T10:31:27.684Z,67.90
2018-10-03T10:33:56.296Z,67.00
2018-10-03T10:36:24.803Z,66.90
2018-10-03T10:38:53.304Z,67.70
2018-10-03T10:41:21.979Z,68.40
2018-10-03T10:43:50.388Z,67.40
2018-10-03T10:46:18.858Z,67.80
2018-10-03T10:48:47.344Z,68.20
2018-10-03T10:51:15.836Z,67.50
2018-10-03T10:53:44.325Z,66.80
2018-10-03T10:56:12.759Z,65.40
2018-10-03T10:58:41.276Z,65.00
2018-10-03T11:01:09.744Z,64.40
2018-10-03T11:03:38.220Z,63.20
2018-10-03T11:06:06.736Z,62.50
2018-10-03T11:08:35.218Z,62.50
2018-10-03T11:11:03.743Z,60.90
2018-10-03T11:13:32.280Z,59.60
2018-10-03T11:16:00.984Z,61.70
2018-10-03T11:18:29.558Z,60.30
2018-10-03T11:20:58.163Z,60.10
2018-10-03T11:23:26.747Z,58.80
2018-10-03T11:25:55.234Z,59.30
2018-10-03T11:28:23.822Z,59.70
2018-10-03T11:30:52.285Z,58.70
2018-10-03T11:33:20.824Z,58.30
2018-10-03T11:35:49.262Z,58.20
2018-10-03T11:38:17.808Z,57.50
2018-10-03T11:40:46.295Z,57.80
2018-10-03T11:43:14.775Z,58.10
2018-10-03T11:45:43.280Z,57.90
2018-10-03T11:48:12.079Z,58.50
2018-10-03T11:50:40.602Z,58.00
2018-10-03T11:53:09.341Z,58.00
2018-10-03T11:55:39.003Z,58.00
2018-10-03T11:58:07.599Z,58.20
2018-10-03T12:00:38.504Z,58.90
2018-10-03T12:03:07.297Z,59.10
2018-10-03T12:05:35.712Z,58.40
2018-10-03T12:08:05.827Z,59.00
2018-10-03T12:10:34.483Z,59.70
2018-10-03T12:13:02.991Z,57.30
2018-10-03T12:15:31.545Z,57.80
2018-10-03T12:18:00.149Z,57.40
2018-10-03T12:20:28.667Z,56.70
2018-10-03T12:22:57.247Z,56.90
2018-10-03T12:25:25.653Z,57.20
2018-10-03T12:27:54.255Z,56.30
2018-10-03T12:30:22.674Z,55.50
2018-10-03T12:32:51.198Z,54.10
2018-10-03T12:35:24.992Z,54.10
2018-10-03T12:37:53.500Z,55.50
2018-10-03T12:40:21.891Z,53.60
2018-10-03T12:42:50.375Z,53.90
2018-10-03T12:45:18.877Z,53.90
2018-10-03T12:47:47.436Z,53.50
2018-10-03T12:50:15.937Z,52.50
2018-10-03T12:52:44.380Z,53.40
2018-10-03T12:55:12.864Z,54.30
2018-10-03T12:57:41.431Z,54.80
2018-10-03T13:00:09.990Z,55.40
2018-10-03T13:02:38.485Z,54.00
2018-10-03T13:05:07.230Z,54.30
2018-10-03T13:07:35.689Z,55.00
2018-10-03T13:10:04.273Z,55.70
2018-10-03T13:12:32.756Z,56.20
2018-10-03T13:15:01.673Z,56.00
2018-10-03T13:17:30.184Z,56.10
2018-10-03T13:19:58.796Z,55.70
2018-10-03T13:22:27.338Z,53.60
2018-10-03T13:24:56.500Z,53.80
2018-10-03T13:27:24.918Z,53.80
2018-10-03T13:29:53.494Z,54.00
2018-10-03T13:32:21.932Z,51.50
2018-10-03T13:34:50.444Z,51.60
2018-10-03T13:37:18.897Z,51.30
2018-10-03T13:39:47.383Z,49.80
2018-10-03T13:42:15.825Z,49.40
2018-10-03T13:44:44.451Z,48.60
2018-10-03T13:47:12.932Z,47.90
2018-10-03T13:49:41.485Z,49.00
2018-10-03T13:52:09.937Z,48.10
2018-10-03T13:54:38.393Z,47.90
2018-10-03T13:57:06.929Z,48.40
2018-10-03T13:59:35.569Z,48.70
2018-10-03T14:02:04.121Z,49.20
2018-10-03T14:04:32.662Z,49.70
2018-10-03T14:07:01.167Z,49.50
2018-10-03T14:09:29.775Z,49.10
2018-10-03T14:11:58.378Z,48.90
2018-10-03T14:14:26.974Z,48.80
2018-10-03T14:16:55.668Z,48.60
2018-10-03T14:19:24.263Z,49.20
2018-10-03T14:21:52.685Z,49.70
2018-10-03T14:24:21.133Z,49.90
2018-10-03T14:26:49.636Z,50.20
2018-10-03T14:29:19.297Z,49.90
2018-10-03T14:31:47.767Z,49.60
2018-10-03T14:34:16.238Z,49.40
2018-10-03T14:36:44.647Z,49.60
2018-10-03T14:39:13.279Z,49.80
2018-10-03T14:41:41.808Z,49.50
2018-10-03T14:44:10.397Z,49.60
2018-10-03T14:46:38.928Z,49.50
2018-10-03T14:49:07.476Z,49.70
2018-10-03T14:51:35.956Z,50.20
2018-10-03T14:54:04.439Z,50.50
2018-10-03T14:56:32.962Z,50.90
2018-10-03T14:59:01.477Z,50.90
2018-10-03T15:01:29.985Z,49.90
2018-10-03T15:03:58.508Z,49.10
2018-10-03T15:06:27.061Z,49.00
2018-10-03T15:08:55.645Z,48.90
2018-10-03T15:11:24.209Z,48.90
2018-10-03T15:13:52.633Z,48.70
2018-10-03T15:16:21.104Z,48.70
2018-10-03T15:18:49.538Z,49.00
2018-10-03T15:21:18.017Z,49.20
2018-10-03T15:23:46.456Z,49.40
2018-10-03T15:26:15.562Z,49.00
2018-10-03T15:28:44.003Z,49.20
2018-10-03T15:31:12.631Z,49.40
2018-10-03T15:33:41.141Z,49.40
2018-10-03T15:36:09.685Z,49.50
2018-10-03T15:38:38.136Z,50.30
2018-10-03T15:41:06.659Z,50.90
2018-10-03T15:43:35.368Z,50.70
2018-10-03T15:46:03.857Z,50.90
2018-10-03T15:48:32.372Z,51.60
2018-10-03T15:51:01.020Z,51.60
2018-10-03T15:53:29.541Z,51.60
2018-10-03T15:55:58.020Z,51.20
2018-10-03T15:58:26.529Z,52.40
2018-10-03T16:00:55.162Z,51.80
2018-10-03T16:03:23.603Z,51.90
2018-10-03T16:05:52.170Z,51.90
2018-10-03T16:08:20.700Z,52.30
2018-10-03T16:10:49.247Z,52.90
2018-10-03T16:13:17.971Z,52.90
2018-10-03T16:15:46.863Z,52.90
2018-10-03T16:18:15.694Z,52.90
2018-10-03T16:20:44.557Z,52.80
2018-10-03T16:23:13.166Z,53.50
2018-10-03T16:25:41.840Z,53.90
2018-10-03T16:28:10.270Z,54.00
2018-10-03T16:30:38.806Z,54.20
2018-10-03T16:33:07.350Z,54.70
2018-10-03T16:35:35.808Z,55.30
2018-10-03T16:38:04.310Z,55.60
2018-10-03T16:40:32.832Z,56.20
2018-10-03T16:43:01.508Z,58.60
2018-10-03T16:45:30.051Z,60.00
2018-10-03T16:47:58.889Z,61.40
2018-10-03T16:50:27.930Z,62.20
2018-10-03T16:52:56.464Z,63.70
2018-10-03T16:55:24.973Z,65.10
2018-10-03T16:57:53.402Z,66.20
2018-10-03T17:00:22.015Z,66.70
2018-10-03T17:02:50.703Z,67.50
2018-10-03T17:05:19.258Z,68.70
2018-10-03T17:07:47.799Z,70.00
2018-10-03T17:10:16.358Z,70.80
2018-10-03T17:12:44.850Z,71.60
2018-10-03T17:15:13.406Z,72.00
2018-10-03T17:17:41.931Z,73.10
2018-10-03T17:20:10.434Z,73.50
2018-10-03T17:22:39.147Z,73.00
2018-10-03T17:25:09.008Z,72.60
2018-10-03T17:27:37.863Z,74.30
2018-10-03T17:30:06.752Z,75.90
2018-10-03T17:32:35.242Z,76.20
2018-10-03T17:35:03.844Z,74.40
2018-10-03T17:37:32.499Z,76.20
2018-10-03T17:40:01.095Z,76.30
2018-10-03T17:42:29.786Z,76.20
2018-10-03T17:44:58.421Z,76.50
2018-10-03T17:47:26.945Z,77.10
2018-10-03T17:49:55.432Z,76.60
2018-10-03T17:52:23.984Z,75.50
2018-10-03T17:54:52.494Z,76.40
2018-10-03T17:57:21.110Z,77.10
2018-10-03T17:59:49.642Z,77.00
2018-10-03T18:02:18.142Z,76.70
2018-10-03T18:04:46.667Z,76.40
2018-10-03T18:07:15.200Z,76.50
2018-10-03T18:09:43.765Z,76.60
2018-10-03T18:12:12.793Z,76.80
2018-10-03T18:14:41.969Z,77.10
2018-10-03T18:17:10.528Z,77.40
2018-10-03T18:19:39.003Z,77.80
2018-10-03T18:22:07.717Z,78.20
2018-10-03T18:24:36.310Z,79.70
2018-10-03T18:27:04.938Z,78.90
2018-10-03T18:29:33.634Z,79.40
2018-10-03T18:32:02.806Z,79.50
2018-10-03T18:34:31.580Z,80.30
2018-10-03T18:37:00.293Z,80.30
2018-10-03T18:39:30.030Z,79.80
2018-10-03T18:41:59.110Z,80.30
2018-10-03T18:44:28.235Z,80.30
2018-10-03T18:46:57.429Z,80.70
2018-10-03T18:49:26.428Z,80.80
2018-10-03T18:51:55.553Z,81.50
2018-10-03T18:54:24.376Z,81.20
2018-10-03T18:56:53.394Z,80.90
2018-10-03T18:59:22.373Z,81.10
2018-10-03T19:01:58.337Z,82.40
2018-10-03T19:04:27.317Z,81.40
2018-10-03T19:06:56.324Z,82.10
2018-10-03T19:09:25.818Z,82.70
2018-10-03T19:11:55.573Z,83.20
2018-10-03T19:14:24.667Z,83.20
2018-10-03T19:16:53.942Z,82.90
2018-10-03T19:19:22.651Z,83.20
2018-10-03T19:21:51.612Z,83.40
2018-10-03T19:24:20.575Z,83.40
2018-10-03T19:26:49.553Z,83.20
2018-10-03T19:29:18.524Z,83.30
2018-10-03T19:31:47.262Z,83.60
2018-10-03T19:34:16.643Z,83.80
2018-10-03T19:36:46.477Z,84.40
2018-10-03T19:39:15.722Z,85.20
2018-10-03T19:41:44.913Z,85.90
2018-10-03T19:44:13.829Z,86.70
2018-10-03T19:46:42.604Z,86.80
2018-10-03T19:49:11.208Z,86.80
2018-10-03T19:51:39.786Z,86.70
2018-10-03T19:54:08.657Z,86.80
2018-10-03T19:56:37.153Z,86.70
2018-10-03T19:59:12.453Z,86.80
2018-10-03T20:01:41.017Z,87.40
2018-10-03T20:04:10.026Z,88.10
2018-10-03T20:06:39.109Z,88.30
2018-10-03T20:09:09.172Z,87.00
2018-10-03T20:11:38.232Z,87.30
2018-10-03T20:14:07.468Z,87.70
2018-10-03T20:16:36.122Z,86.40
2018-10-03T20:19:06.103Z,86.50
2018-10-03T20:21:35.142Z,86.40
2018-10-03T20:24:04.096Z,86.50
2018-10-03T20:26:33.680Z,87.00
2018-10-03T20:29:02.660Z,86.50
2018-10-03T20:31:31.350Z,86.10
2018-10-03T20:34:00.031Z,86.40
2018-10-03T20:36:28.926Z,86.40
2018-10-03T20:38:58.543Z,87.00
2018-10-03T20:41:27.376Z,87.60
2018-10-03T20:43:56.518Z,86.80
2018-10-03T20:46:25.049Z,87.70
2018-10-03T20:48:53.613Z,88.40
2018-10-03T20:51:22.196Z,89.00
2018-10-03T20:53:50.819Z,88.40
2018-10-03T20:56:19.752Z,88.80
2018-10-03T20:58:48.368Z,88.50
2018-10-03T21:01:16.870Z,88.40
2018-10-03T21:03:45.434Z,88.60
2018-10-03T21:06:13.942Z,88.20
2018-10-03T21:08:43.297Z,87.90
2018-10-03T21:11:11.922Z,88.10
2018-10-03T21:13:40.566Z,88.10
2018-10-03T21:16:09.067Z,89.10
2018-10-03T21:18:37.544Z,89.20
2018-10-03T21:21:06.126Z,89.10
2018-10-03T21:23:34.709Z,89.10
2018-10-03T21:26:03.493Z,89.20
2018-10-03T21:28:32.110Z,89.10
2018-10-03T21:31:00.790Z,89.30
2018-10-03T21:33:29.642Z,89.00
2018-10-03T21:35:58.506Z,89.40
2018-10-03T21:38:27.345Z,88.20
2018-10-03T21:40:56.230Z,88.50
2018-10-03T21:43:24.836Z,89.30
2018-10-03T21:45:53.413Z,89.00
2018-10-03T21:48:21.900Z,88.70
2018-10-03T21:50:50.474Z,89.00
2018-10-03T21:53:18.933Z,90.20
2018-10-03T21:55:47.514Z,90.40
2018-10-03T21:58:16.005Z,90.50
2018-10-03T22:00:49.836Z,90.40
2018-10-03T22:03:18.250Z,90.40
2018-10-03T22:05:46.753Z,90.60
2018-10-03T22:08:15.350Z,90.90
2018-10-03T22:10:44.138Z,90.80
2018-10-03T22:13:12.589Z,90.70
2018-10-03T22:15:41.339Z,90.20
2018-10-03T22:18:09.840Z,89.90
2018-10-03T22:20:38.386Z,89.40
2018-10-03T22:23:07.354Z,89.90
2018-10-03T22:25:36.044Z,90.30
2018-10-03T22:28:04.964Z,90.20
2018-10-03T22:30:33.740Z,90.50
2018-10-03T22:33:02.296Z,90.60
2018-10-03T22:35:30.839Z,90.40
2018-10-03T22:37:59.408Z,90.40
2018-10-03T22:40:27.981Z,90.30
2018-10-03T22:42:57.161Z,90.50
2018-10-03T22:45:25.736Z,90.80
2018-10-03T22:47:54.206Z,91.00
2018-10-03T22:50:22.737Z,90.90
2018-10-03T22:52:51.191Z,91.00
2018-10-03T22:55:19.685Z,90.30
2018-10-03T22:57:48.122Z,90.60
2018-10-03T23:00:16.657Z,90.70
2018-10-03T23:02:45.112Z,90.70
2018-10-03T23:05:13.680Z,90.60
2018-10-03T23:07:42.212Z,90.40
2018-10-03T23:10:10.762Z,90.30
2018-10-03T23:12:39.326Z,90.50
2018-10-03T23:15:07.885Z,90.70
2018-10-03T23:17:36.350Z,90.60
2018-10-03T23:20:04.878Z,90.80
2018-10-03T23:22:33.360Z,90.60
2018-10-03T23:25:02.160Z,90.30
2018-10-03T23:27:30.742Z,90.70
2018-10-03T23:29:59.313Z,91.00
2018-10-03T23:32:27.928Z,91.20
2018-10-03T23:34:56.422Z,91.10
2018-10-03T23:37:24.874Z,90.70
2018-10-03T23:39:53.342Z,90.90
2018-10-03T23:42:21.835Z,91.00
2018-10-03T23:44:50.429Z,91.00
2018-10-03T23:47:18.933Z,90.80
2018-10-03T23:49:47.444Z,90.80
2018-10-03T23:52:15.932Z,90.70
2018-10-03T23:54:44.453Z,91.00
2018-10-03T23:57:13.033Z,90.80
2018-10-03T23:59:41.558Z,90.80
